createdAt,value
2018-12-16T00:01:04.903Z,91.30
2018-12-16T00:03:11.190Z,91.20
2018-12-16T00:05:16.685Z,91.30
2018-12-16T00:07:23.486Z,91.20
2018-12-16T00:09:34.882Z,91.00
2018-12-16T00:11:41.686Z,90.70
2018-12-16T00:13:48.951Z,91.00
2018-12-16T00:15:54.885Z,91.10
2018-12-16T00:18:01.283Z,91.10
2018-12-16T00:20:05.870Z,91.00
2018-12-16T00:22:15.271Z,91.00
2018-12-16T00:24:22.285Z,91.10
2018-12-16T00:26:38.503Z,91.00
2018-12-16T00:28:44.487Z,90.70
2018-12-16T00:30:49.846Z,90.60
2018-12-16T00:32:55.722Z,90.60
2018-12-16T00:35:02.294Z,91.10
2018-12-16T00:37:06.395Z,90.90
2018-12-16T00:39:10.582Z,90.90
2018-12-16T00:41:18.721Z,90.70
2018-12-16T00:43:22.771Z,90.60
2018-12-16T00:45:26.956Z,90.70
2018-12-16T00:47:31.702Z,90.60
2018-12-16T00:49:38.190Z,91.00
2018-12-16T00:51:43.870Z,90.80
2018-12-16T00:53:47.818Z,90.80
2018-12-16T00:55:53.514Z,90.70
2018-12-16T00:57:58.925Z,90.80
2018-12-16T01:00:03.875Z,90.70
2018-12-16T01:02:12.635Z,90.60
2018-12-16T01:04:17.815Z,90.70
2018-12-16T01:06:22.899Z,90.50
2018-12-16T01:08:26.989Z,90.40
2018-12-16T01:10:31.789Z,90.40
2018-12-16T01:12:37.810Z,90.30
2018-12-16T01:14:43.747Z,90.30
2018-12-16T01:16:47.789Z,90.40
2018-12-16T01:18:52.094Z,90.40
2018-12-16T01:20:56.166Z,90.60
2018-12-16T01:23:01.030Z,90.80
2018-12-16T01:25:05.427Z,90.70
2018-12-16T01:27:10.342Z,90.60
2018-12-16T01:29:14.326Z,90.70
2018-12-16T01:31:22.053Z,90.50
2018-12-16T01:33:26.045Z,90.60
2018-12-16T01:35:29.986Z,90.50
2018-12-16T01:37:37.051Z,90.40
2018-12-16T01:39:42.656Z,90.40
2018-12-16T01:41:47.672Z,90.40
2018-12-16T01:43:53.432Z,90.20
2018-12-16T01:45:57.639Z,90.40
2018-12-16T01:48:02.346Z,90.40
2018-12-16T01:50:07.460Z,90.20
2018-12-16T01:52:11.374Z,90.10
2018-12-16T01:54:16.011Z,90.10
2018-12-16T01:56:21.420Z,90.00
2018-12-16T01:58:25.422Z,90.00
2018-12-16T02:00:31.677Z,90.00
2018-12-16T02:02:36.729Z,90.20
2018-12-16T02:04:41.097Z,90.20
2018-12-16T02:06:45.106Z,90.50
2018-12-16T02:08:49.330Z,90.70
2018-12-16T02:10:53.883Z,90.80
2018-12-16T02:12:59.015Z,90.70
2018-12-16T02:15:13.250Z,90.70
2018-12-16T02:17:17.269Z,90.80
2018-12-16T02:19:21.373Z,91.00
2018-12-16T02:21:26.375Z,91.00
2018-12-16T02:23:30.515Z,91.00
2018-12-16T02:25:34.480Z,91.00
2018-12-16T02:27:40.446Z,90.90
2018-12-16T02:29:45.452Z,90.80
2018-12-16T02:31:49.422Z,90.90
2018-12-16T02:33:54.177Z,90.60
2018-12-16T02:35:58.963Z,90.40
2018-12-16T02:38:02.917Z,90.30
2018-12-16T02:40:06.979Z,90.20
2018-12-16T02:42:12.167Z,90.00
2018-12-16T02:44:16.264Z,90.20
2018-12-16T02:46:21.807Z,90.50
2018-12-16T02:48:25.868Z,90.50
2018-12-16T02:50:31.645Z,90.40
2018-12-16T02:52:36.236Z,90.30
2018-12-16T02:54:40.848Z,90.20
2018-12-16T02:56:45.143Z,90.20
2018-12-16T02:58:49.430Z,90.60
2018-12-16T03:00:53.371Z,90.60
2018-12-16T03:03:00.132Z,90.70
2018-12-16T03:05:04.630Z,90.80
2018-12-16T03:07:09.341Z,90.70
2018-12-16T03:09:13.812Z,90.60
2018-12-16T03:11:19.306Z,90.50
2018-12-16T03:13:23.883Z,90.60
2018-12-16T03:15:28.390Z,90.60
2018-12-16T03:17:33.279Z,90.90
2018-12-16T03:19:39.222Z,90.60
2018-12-16T03:21:44.924Z,90.90
2018-12-16T03:23:51.039Z,90.70
2018-12-16T03:25:57.503Z,90.80
2018-12-16T03:28:03.549Z,91.20
2018-12-16T03:30:13.163Z,90.70
2018-12-16T03:32:19.919Z,90.80
2018-12-16T03:34:25.223Z,90.80
2018-12-16T03:36:32.305Z,90.70
2018-12-16T03:38:36.705Z,90.70
2018-12-16T03:40:41.533Z,90.80
2018-12-16T03:42:51.623Z,90.80
2018-12-16T03:44:57.219Z,90.80
2018-12-16T03:47:01.217Z,90.70
2018-12-16T03:49:07.818Z,90.60
2018-12-16T03:51:11.797Z,90.50
2018-12-16T03:53:20.168Z,90.40
2018-12-16T03:55:23.350Z,90.40
2018-12-16T03:57:28.061Z,90.30
2018-12-16T03:59:32.739Z,90.40
2018-12-16T04:01:38.386Z,90.20
2018-12-16T04:03:43.496Z,90.00
2018-12-16T04:05:47.715Z,89.80
2018-12-16T04:07:53.791Z,90.20
2018-12-16T04:09:58.785Z,90.20
2018-12-16T04:12:03.976Z,90.20
2018-12-16T04:14:09.141Z,90.00
2018-12-16T04:16:14.964Z,90.00
2018-12-16T04:18:19.102Z,90.10
2018-12-16T04:20:23.662Z,90.20
2018-12-16T04:22:27.716Z,90.40
2018-12-16T04:24:33.990Z,90.30
2018-12-16T04:26:40.064Z,90.00
2018-12-16T04:28:44.259Z,90.10
2018-12-16T04:30:48.439Z,90.00
2018-12-16T04:32:53.342Z,90.00
2018-12-16T04:34:57.517Z,90.10
2018-12-16T04:37:01.446Z,90.10
2018-12-16T04:39:09.130Z,90.20
2018-12-16T04:41:13.187Z,90.50
2018-12-16T04:43:20.968Z,90.40
2018-12-16T04:45:25.483Z,90.30
2018-12-16T04:47:29.827Z,90.60
2018-12-16T04:49:33.994Z,90.20
2018-12-16T04:51:39.324Z,90.50
2018-12-16T04:53:44.183Z,90.80
2018-12-16T04:55:48.146Z,90.60
2018-12-16T04:57:52.776Z,90.50
2018-12-16T04:59:57.082Z,90.60
2018-12-16T05:02:01.249Z,90.90
2018-12-16T05:04:05.598Z,91.30
2018-12-16T05:06:09.973Z,91.30
2018-12-16T05:08:14.024Z,91.70
2018-12-16T05:10:31.349Z,92.00
2018-12-16T05:12:38.398Z,92.40
2018-12-16T05:14:43.798Z,93.30
2018-12-16T05:16:51.343Z,94.10
2018-12-16T05:18:56.109Z,94.60
2018-12-16T05:21:00.122Z,94.70
2018-12-16T05:23:04.455Z,94.80
2018-12-16T05:25:08.990Z,95.30
2018-12-16T05:27:13.154Z,95.90
2018-12-16T05:29:18.417Z,96.10
2018-12-16T05:31:24.026Z,96.60
2018-12-16T05:33:28.056Z,96.90
2018-12-16T05:35:38.059Z,97.40
2018-12-16T05:37:42.583Z,97.50
2018-12-16T05:39:47.057Z,97.60
2018-12-16T05:41:52.683Z,97.60
2018-12-16T05:43:58.698Z,97.50
2018-12-16T05:46:03.127Z,97.30
2018-12-16T05:48:07.563Z,97.30
2018-12-16T05:50:11.907Z,97.50
2018-12-16T05:52:15.916Z,97.30
2018-12-16T05:54:23.260Z,97.50
2018-12-16T05:56:27.837Z,98.10
2018-12-16T05:58:32.913Z,97.90
2018-12-16T06:00:38.345Z,97.80
2018-12-16T06:02:42.365Z,97.60
2018-12-16T06:04:47.204Z,97.80
2018-12-16T06:06:52.241Z,97.70
2018-12-16T06:08:57.750Z,97.40
2018-12-16T06:11:01.924Z,97.60
2018-12-16T06:13:07.142Z,97.50
2018-12-16T06:15:15.356Z,97.20
2018-12-16T06:17:23.027Z,97.10
2018-12-16T06:19:33.373Z,96.90
2018-12-16T06:21:46.764Z,96.80
2018-12-16T06:23:56.136Z,96.70
2018-12-16T06:26:05.572Z,96.70
2018-12-16T06:28:13.597Z,96.40
2018-12-16T06:30:22.990Z,96.50
2018-12-16T06:32:26.990Z,96.50
2018-12-16T06:34:31.543Z,96.40
2018-12-16T06:36:35.567Z,96.20
2018-12-16T06:38:41.060Z,96.20
2018-12-16T06:40:45.758Z,96.10
2018-12-16T06:42:50.461Z,96.00
2018-12-16T06:44:55.231Z,96.00
2018-12-16T06:46:59.837Z,96.10
2018-12-16T06:49:05.381Z,96.60
2018-12-16T06:51:10.253Z,96.40
2018-12-16T06:53:15.000Z,96.00
2018-12-16T06:55:19.203Z,96.00
2018-12-16T06:57:24.286Z,96.00
2018-12-16T06:59:29.799Z,96.00
2018-12-16T07:01:33.894Z,96.00
2018-12-16T07:03:39.226Z,96.00
2018-12-16T07:05:44.054Z,96.10
2018-12-16T07:07:50.085Z,96.30
2018-12-16T07:09:55.363Z,96.50
2018-12-16T07:12:00.253Z,96.30
2018-12-16T07:14:05.893Z,96.20
2018-12-16T07:16:11.260Z,96.20
2018-12-16T07:18:15.342Z,96.20
2018-12-16T07:20:19.418Z,96.30
2018-12-16T07:22:24.689Z,96.70
2018-12-16T07:24:28.786Z,97.00
2018-12-16T07:26:33.325Z,97.00
2018-12-16T07:28:37.676Z,97.10
2018-12-16T07:30:42.773Z,97.20
2018-12-16T07:32:48.957Z,97.00
2018-12-16T07:34:53.594Z,97.10
2018-12-16T07:37:00.132Z,97.40
2018-12-16T07:39:05.813Z,97.20
2018-12-16T07:41:11.803Z,97.40
2018-12-16T07:43:16.328Z,96.90
2018-12-16T07:45:23.395Z,96.70
2018-12-16T07:47:28.045Z,97.10
2018-12-16T07:49:33.142Z,97.50
2018-12-16T07:51:37.712Z,97.70
2018-12-16T07:53:42.265Z,97.40
2018-12-16T07:55:47.594Z,97.20
2018-12-16T07:57:55.025Z,97.20
2018-12-16T08:00:00.585Z,97.20
2018-12-16T08:02:05.356Z,97.10
2018-12-16T08:04:09.603Z,97.40
2018-12-16T08:06:15.042Z,97.50
2018-12-16T08:08:20.093Z,97.50
2018-12-16T08:10:24.489Z,97.40
2018-12-16T08:12:29.313Z,97.10
2018-12-16T08:14:34.458Z,96.80
2018-12-16T08:16:38.812Z,96.50
2018-12-16T08:18:44.462Z,96.50
2018-12-16T08:20:50.473Z,96.40
2018-12-16T08:22:55.437Z,96.50
2018-12-16T08:25:02.979Z,96.50
2018-12-16T08:27:08.703Z,96.60
2018-12-16T08:29:13.841Z,96.90
2018-12-16T08:31:20.364Z,97.00
2018-12-16T08:33:24.361Z,97.40
2018-12-16T08:35:29.211Z,97.40
2018-12-16T08:37:34.150Z,97.30
2018-12-16T08:39:39.717Z,97.20
2018-12-16T08:41:45.992Z,96.80
2018-12-16T08:43:52.035Z,96.50
2018-12-16T08:45:56.778Z,96.20
2018-12-16T08:48:00.911Z,96.20
2018-12-16T08:50:06.575Z,96.00
2018-12-16T08:52:10.826Z,95.70
2018-12-16T08:54:18.780Z,95.60
2018-12-16T08:56:23.675Z,95.40
2018-12-16T08:58:28.887Z,95.20
2018-12-16T09:00:33.652Z,95.10
2018-12-16T09:02:38.321Z,95.00
2018-12-16T09:04:43.343Z,94.90
2018-12-16T09:06:51.508Z,94.60
2018-12-16T09:08:58.446Z,94.50
2018-12-16T09:11:03.531Z,94.50
2018-12-16T09:13:10.065Z,94.50
2018-12-16T09:15:14.853Z,94.60
2018-12-16T09:17:19.650Z,94.40
2018-12-16T09:19:28.960Z,94.30
2018-12-16T09:21:34.025Z,94.10
2018-12-16T09:23:39.705Z,94.10
2018-12-16T09:25:47.344Z,94.10
2018-12-16T09:27:51.658Z,94.10
2018-12-16T09:29:56.649Z,94.20
2018-12-16T09:32:02.815Z,94.20
2018-12-16T09:34:07.561Z,94.20
2018-12-16T09:36:13.734Z,94.20
2018-12-16T09:38:19.064Z,94.30
2018-12-16T09:40:24.644Z,94.00
2018-12-16T09:42:29.114Z,93.80
2018-12-16T09:44:34.468Z,93.80
2018-12-16T09:46:39.653Z,94.10
2018-12-16T09:48:45.300Z,94.00
2018-12-16T09:50:50.434Z,94.00
2018-12-16T09:52:57.306Z,94.10
2018-12-16T09:55:02.452Z,93.80
2018-12-16T09:57:09.530Z,93.80
2018-12-16T09:59:15.847Z,93.80
2018-12-16T10:01:20.805Z,93.80
2018-12-16T10:03:26.381Z,93.90
2018-12-16T10:05:32.398Z,93.80
2018-12-16T10:07:37.313Z,93.70
2018-12-16T10:09:42.428Z,93.60
2018-12-16T10:11:47.566Z,93.50
2018-12-16T10:13:53.177Z,93.40
2018-12-16T10:15:57.447Z,93.30
2018-12-16T10:18:02.263Z,93.20
2018-12-16T10:20:10.417Z,93.10
2018-12-16T10:22:16.445Z,93.00
2018-12-16T10:24:22.370Z,93.00
2018-12-16T10:26:28.502Z,93.10
2018-12-16T10:28:32.747Z,93.20
2018-12-16T10:30:36.854Z,93.20
2018-12-16T10:32:44.338Z,93.00
2018-12-16T10:34:50.505Z,92.90
2018-12-16T10:36:56.226Z,92.80
2018-12-16T10:39:04.291Z,92.70
2018-12-16T10:41:09.730Z,92.70
2018-12-16T10:43:14.467Z,92.80
2018-12-16T10:45:19.233Z,92.80
2018-12-16T10:47:27.077Z,93.00
2018-12-16T10:49:31.894Z,93.10
2018-12-16T10:51:37.330Z,93.10
2018-12-16T10:53:42.315Z,93.10
2018-12-16T10:55:46.406Z,93.40
2018-12-16T10:57:51.589Z,93.40
2018-12-16T10:59:56.473Z,93.50
2018-12-16T11:02:00.572Z,93.70
2018-12-16T11:04:05.770Z,93.80
2018-12-16T11:06:12.660Z,93.80
2018-12-16T11:08:17.512Z,94.20
2018-12-16T11:10:22.742Z,93.70
2018-12-16T11:12:30.121Z,93.70
2018-12-16T11:14:36.569Z,93.60
2018-12-16T11:16:46.750Z,93.60
2018-12-16T11:18:52.351Z,93.60
2018-12-16T11:20:57.416Z,93.40
2018-12-16T11:23:01.600Z,93.60
2018-12-16T11:25:09.155Z,93.70
2018-12-16T11:27:14.065Z,93.70
2018-12-16T11:29:19.764Z,93.70
2018-12-16T11:31:30.733Z,93.60
2018-12-16T11:33:39.511Z,93.70
2018-12-16T11:35:53.985Z,93.80
2018-12-16T11:38:05.263Z,94.00
2018-12-16T11:43:19.811Z,94.10
2018-12-16T11:45:38.006Z,94.60
2018-12-16T11:50:18.034Z,94.70
2018-12-16T11:52:28.888Z,94.80
2018-12-16T11:54:43.831Z,94.60
2018-12-16T11:56:56.471Z,94.70
2018-12-16T11:59:12.908Z,94.90
2018-12-16T12:01:22.971Z,95.00
2018-12-16T12:03:31.892Z,95.30
2018-12-16T12:05:41.146Z,95.40
2018-12-16T12:07:52.246Z,95.20
2018-12-16T12:10:03.346Z,95.20
2018-12-16T12:12:13.955Z,95.10
2018-12-16T12:14:28.615Z,95.10
2018-12-16T12:16:47.223Z,95.00
2018-12-16T12:19:02.635Z,95.10
2018-12-16T12:21:13.959Z,95.60
2018-12-16T12:23:24.716Z,95.70
2018-12-16T12:25:32.953Z,95.60
2018-12-16T12:27:43.076Z,95.70
2018-12-16T12:29:54.368Z,95.90
2018-12-16T12:32:06.594Z,96.20
2018-12-16T12:34:13.991Z,95.80
2018-12-16T12:36:23.430Z,95.60
2018-12-16T12:38:32.703Z,96.00
2018-12-16T12:40:39.511Z,95.70
2018-12-16T12:42:49.441Z,95.90
2018-12-16T12:47:28.447Z,95.90
2018-12-16T12:49:45.181Z,96.00
2018-12-16T12:52:03.370Z,95.70
2018-12-16T12:54:10.353Z,95.80
2018-12-16T12:56:21.495Z,96.00
2018-12-16T12:58:37.601Z,96.30
2018-12-16T13:00:55.535Z,96.40
2018-12-16T13:03:07.284Z,96.50
2018-12-16T13:05:15.587Z,96.70
2018-12-16T13:09:49.888Z,96.50
2018-12-16T13:12:01.965Z,96.50
2018-12-16T13:14:09.199Z,96.80
2018-12-16T13:16:17.577Z,96.90
2018-12-16T13:18:28.560Z,97.00
2018-12-16T13:20:46.521Z,97.10
2018-12-16T13:22:58.562Z,97.10
2018-12-16T13:25:18.068Z,97.10
2018-12-16T13:27:28.048Z,97.20
2018-12-16T13:29:36.845Z,97.30
2018-12-16T13:31:52.076Z,97.40
2018-12-16T13:34:00.437Z,97.30
2018-12-16T13:36:14.494Z,97.00
2018-12-16T13:38:23.440Z,97.20
2018-12-16T13:40:36.435Z,97.40
2018-12-16T13:42:43.695Z,97.60
2018-12-16T13:44:52.119Z,97.80
2018-12-16T13:47:00.491Z,97.80
2018-12-16T13:49:11.620Z,97.70
2018-12-16T13:51:23.451Z,97.90
2018-12-16T13:53:35.570Z,98.10
2018-12-16T13:55:49.486Z,98.10
2018-12-16T13:57:59.025Z,98.10
2018-12-16T14:00:06.221Z,98.20
2018-12-16T14:02:18.353Z,98.40
2018-12-16T14:04:30.384Z,98.40
2018-12-16T14:06:42.902Z,98.30
2018-12-16T14:08:52.869Z,98.50
2018-12-16T14:11:00.722Z,98.50
2018-12-16T14:13:09.666Z,98.50
2018-12-16T14:15:25.713Z,98.70
2018-12-16T14:17:37.987Z,98.70
2018-12-16T14:19:52.821Z,98.90
2018-12-16T14:22:05.671Z,98.90
2018-12-16T14:24:21.506Z,99.00
2018-12-16T14:26:28.666Z,99.10
2018-12-16T14:28:43.253Z,99.40
2018-12-16T14:30:55.081Z,99.30
2018-12-16T14:33:08.730Z,99.60
2018-12-16T14:35:32.033Z,99.50
2018-12-16T14:37:44.933Z,99.70
2018-12-16T14:39:54.849Z,99.80
2018-12-16T14:42:06.632Z,99.90
2018-12-16T14:44:15.913Z,99.90
2018-12-16T14:46:22.317Z,99.80
2018-12-16T14:48:41.974Z,99.90
2018-12-16T14:51:07.012Z,99.90
2018-12-16T14:55:38.409Z,99.90
2018-12-16T14:57:50.142Z,99.90
2018-12-16T15:00:08.388Z,99.90
2018-12-16T15:02:16.663Z,99.90
2018-12-16T15:04:26.973Z,99.90
2018-12-16T15:06:37.373Z,99.90
2018-12-16T15:08:58.313Z,99.90
2018-12-16T15:11:08.228Z,99.90
2018-12-16T15:13:17.465Z,99.90
2018-12-16T15:15:32.476Z,99.90
2018-12-16T15:17:49.530Z,99.90
2018-12-16T15:19:59.960Z,99.90
2018-12-16T15:22:19.096Z,99.90
2018-12-16T15:24:28.246Z,99.90
2018-12-16T15:26:38.179Z,99.90
2018-12-16T15:28:51.608Z,99.90
2018-12-16T15:31:08.800Z,99.90
2018-12-16T15:33:20.304Z,99.90
2018-12-16T15:35:29.486Z,99.90
2018-12-16T15:37:48.917Z,99.90
2018-12-16T15:39:55.961Z,99.90
2018-12-16T15:42:12.938Z,99.90
2018-12-16T15:44:22.402Z,99.90
2018-12-16T15:46:42.069Z,99.80
2018-12-16T15:48:46.655Z,99.90
2018-12-16T15:50:52.614Z,99.90
2018-12-16T15:52:59.393Z,99.90
2018-12-16T15:55:05.318Z,99.90
2018-12-16T15:57:11.885Z,99.90
2018-12-16T15:59:17.026Z,99.90
2018-12-16T16:01:29.381Z,99.90
2018-12-16T16:03:45.275Z,99.90
2018-12-16T16:05:55.619Z,99.90
2018-12-16T16:08:18.570Z,99.90
2018-12-16T16:10:26.624Z,99.90
2018-12-16T16:12:41.490Z,99.90
2018-12-16T16:15:03.860Z,99.90
2018-12-16T16:17:13.685Z,99.90
2018-12-16T16:19:23.083Z,99.90
2018-12-16T16:21:32.262Z,99.90
2018-12-16T16:23:42.893Z,99.90
2018-12-16T16:25:55.890Z,99.90
2018-12-16T16:28:06.960Z,99.90
2018-12-16T16:30:22.719Z,99.90
2018-12-16T16:32:31.793Z,99.90
2018-12-16T16:34:44.738Z,99.90
2018-12-16T16:36:52.817Z,99.90
2018-12-16T16:39:05.181Z,99.90
2018-12-16T16:41:22.033Z,99.90
2018-12-16T16:43:32.537Z,99.90
2018-12-16T16:45:41.473Z,99.90
2018-12-16T16:47:51.292Z,99.90
2018-12-16T16:50:07.450Z,99.90
2018-12-16T16:52:17.262Z,99.90
2018-12-16T16:54:29.510Z,99.90
2018-12-16T16:56:37.377Z,99.90
2018-12-16T16:58:48.565Z,99.90
2018-12-16T17:01:05.443Z,99.90
2018-12-16T17:03:15.447Z,99.90
2018-12-16T17:05:31.538Z,99.90
2018-12-16T17:07:44.326Z,99.90
2018-12-16T17:09:56.328Z,99.90
2018-12-16T17:12:04.873Z,99.90
2018-12-16T17:14:16.907Z,99.90
2018-12-16T17:16:26.390Z,99.90
2018-12-16T17:18:39.491Z,99.90
2018-12-16T17:20:52.756Z,99.90
2018-12-16T17:23:03.385Z,99.90
2018-12-16T17:25:17.200Z,99.90
2018-12-16T17:27:32.756Z,99.90
2018-12-16T17:29:44.002Z,99.90
2018-12-16T17:31:54.412Z,99.90
2018-12-16T17:34:03.917Z,99.90
2018-12-16T17:36:13.718Z,99.90
2018-12-16T17:38:27.533Z,99.90
2018-12-16T17:40:47.626Z,99.90
2018-12-16T17:42:57.619Z,99.90
2018-12-16T17:47:23.033Z,99.90
2018-12-16T17:49:36.842Z,99.90
2018-12-16T17:52:04.821Z,99.90
2018-12-16T17:54:15.068Z,99.90
2018-12-16T17:56:25.761Z,99.90
2018-12-16T17:58:37.412Z,99.90
2018-12-16T18:00:51.665Z,99.90
2018-12-16T18:03:00.646Z,99.90
2018-12-16T18:05:11.659Z,99.90
2018-12-16T18:07:26.512Z,99.90
2018-12-16T18:09:37.316Z,99.90
2018-12-16T18:11:49.265Z,99.90
2018-12-16T18:13:59.440Z,99.90
2018-12-16T18:16:09.392Z,99.90
2018-12-16T18:18:20.613Z,99.90
2018-12-16T18:20:30.575Z,99.90
2018-12-16T18:22:42.854Z,99.90
2018-12-16T18:24:57.141Z,99.90
2018-12-16T18:29:40.271Z,99.90
2018-12-16T18:31:49.120Z,99.90
2018-12-16T18:33:59.317Z,99.90
2018-12-16T18:36:09.925Z,99.90
2018-12-16T18:38:23.089Z,99.90
2018-12-16T18:40:30.793Z,99.90
2018-12-16T18:42:44.968Z,99.90
2018-12-16T18:44:55.930Z,99.90
2018-12-16T18:47:10.744Z,99.90
2018-12-16T18:49:25.257Z,99.90
2018-12-16T18:51:36.639Z,99.90
2018-12-16T18:53:43.462Z,99.90
2018-12-16T18:55:53.071Z,99.90
2018-12-16T18:58:05.176Z,99.90
2018-12-16T19:00:17.383Z,99.90
2018-12-16T19:02:26.086Z,99.90
2018-12-16T19:04:36.759Z,99.90
2018-12-16T19:06:50.296Z,99.90
2018-12-16T19:09:01.298Z,99.90
2018-12-16T19:11:18.918Z,99.90
2018-12-16T19:13:28.093Z,99.90
2018-12-16T19:15:45.602Z,99.90
2018-12-16T19:18:03.525Z,99.90
2018-12-16T19:20:16.577Z,99.70
2018-12-16T19:22:24.433Z,99.50
2018-12-16T19:24:35.509Z,99.30
2018-12-16T19:26:47.015Z,99.40
2018-12-16T19:28:57.255Z,99.50
2018-12-16T19:31:09.418Z,99.50
2018-12-16T19:33:23.702Z,99.40
2018-12-16T19:35:32.402Z,99.30
2018-12-16T19:37:43.700Z,99.40
2018-12-16T19:39:53.014Z,99.50
2018-12-16T19:42:03.872Z,99.40
2018-12-16T19:44:14.483Z,99.40
2018-12-16T19:46:29.651Z,99.40
2018-12-16T19:48:45.363Z,99.50
2018-12-16T19:50:57.388Z,99.60
2018-12-16T19:53:12.363Z,99.60
2018-12-16T19:55:24.829Z,99.80
2018-12-16T19:59:49.139Z,99.70
2018-12-16T20:01:59.535Z,99.60
2018-12-16T20:04:12.693Z,99.70
2018-12-16T20:06:24.653Z,99.60
2018-12-16T20:08:33.787Z,99.60
2018-12-16T20:10:54.056Z,99.70
2018-12-16T20:13:02.801Z,99.70
2018-12-16T20:15:16.995Z,99.70
2018-12-16T20:17:26.548Z,99.80
2018-12-16T20:19:37.669Z,99.60
2018-12-16T20:21:46.585Z,99.60
2018-12-16T20:23:58.597Z,99.60
2018-12-16T20:26:11.989Z,99.70
2018-12-16T20:28:22.936Z,99.80
2018-12-16T20:30:39.632Z,99.80
2018-12-16T20:32:48.732Z,99.70
2018-12-16T20:35:01.698Z,99.70
2018-12-16T20:37:11.388Z,99.70
2018-12-16T20:39:29.175Z,99.60
2018-12-16T20:41:39.562Z,99.60
2018-12-16T20:43:48.242Z,99.50
2018-12-16T20:46:01.666Z,99.50
2018-12-16T20:48:15.449Z,99.50
2018-12-16T20:50:36.076Z,99.30
2018-12-16T20:52:47.357Z,99.20
2018-12-16T20:54:57.756Z,99.20
2018-12-16T20:57:06.489Z,99.20
2018-12-16T20:59:19.779Z,99.10
2018-12-16T21:01:49.179Z,99.00
2018-12-16T21:04:06.348Z,99.20
2018-12-16T21:06:17.942Z,99.30
2018-12-16T21:08:29.284Z,99.40
2018-12-16T21:10:49.079Z,99.40
2018-12-16T21:13:11.859Z,99.40
2018-12-16T21:15:25.500Z,99.30
2018-12-16T21:17:44.781Z,99.50
2018-12-16T21:19:55.518Z,99.60
2018-12-16T21:22:05.602Z,99.70
2018-12-16T21:26:32.139Z,99.80
2018-12-16T21:28:45.637Z,99.90
2018-12-16T21:31:06.635Z,99.90
2018-12-16T21:33:17.356Z,99.90
2018-12-16T21:35:33.950Z,99.90
2018-12-16T21:37:45.836Z,99.90
2018-12-16T21:39:58.034Z,99.90
2018-12-16T21:42:05.541Z,99.90
2018-12-16T21:44:15.401Z,99.90
2018-12-16T21:46:29.584Z,99.90
2018-12-16T21:48:42.575Z,99.90
2018-12-16T21:50:55.139Z,99.90
2018-12-16T21:53:05.007Z,99.90
2018-12-16T21:55:20.837Z,99.90
2018-12-16T21:57:33.178Z,99.90
2018-12-16T21:59:46.643Z,99.90
2018-12-16T22:01:55.275Z,99.70
2018-12-16T22:04:02.571Z,99.60
2018-12-16T22:06:13.679Z,99.50
2018-12-16T22:08:25.770Z,99.20
2018-12-16T22:10:32.898Z,99.50
2018-12-16T22:12:45.722Z,98.90
2018-12-16T22:14:54.278Z,98.70
2018-12-16T22:17:03.884Z,98.70
2018-12-16T22:19:14.748Z,98.60
2018-12-16T22:23:40.508Z,98.50
2018-12-16T22:25:49.357Z,98.50
2018-12-16T22:27:59.661Z,98.50
2018-12-16T22:30:07.062Z,98.40
2018-12-16T22:32:15.437Z,98.40
2018-12-16T22:34:21.822Z,98.30
2018-12-16T22:36:33.012Z,98.30
2018-12-16T22:38:59.456Z,98.30
2018-12-16T22:41:11.726Z,98.30
2018-12-16T22:43:25.621Z,98.30
2018-12-16T22:45:33.497Z,98.40
2018-12-16T22:47:43.837Z,98.40
2018-12-16T22:49:51.975Z,98.60
2018-12-16T22:52:02.414Z,98.70
2018-12-16T22:54:16.431Z,98.80
2018-12-16T22:56:26.825Z,98.80
2018-12-16T22:58:36.187Z,98.80
2018-12-16T23:00:50.380Z,98.70
2018-12-16T23:03:01.525Z,98.50
2018-12-16T23:05:13.508Z,98.50
2018-12-16T23:07:37.596Z,98.40
2018-12-16T23:09:50.320Z,98.40
2018-12-16T23:12:02.921Z,98.30
2018-12-16T23:14:11.335Z,98.30
2018-12-16T23:16:22.823Z,98.40
2018-12-16T23:18:32.315Z,98.50
2018-12-16T23:20:39.368Z,98.70
2018-12-16T23:22:50.835Z,98.60
2018-12-16T23:25:07.452Z,98.50
2018-12-16T23:27:15.656Z,98.30
2018-12-16T23:29:26.066Z,98.10
2018-12-16T23:31:38.105Z,97.90
2018-12-16T23:33:54.002Z,97.80
2018-12-16T23:36:02.887Z,97.80
2018-12-16T23:38:12.762Z,97.90
2018-12-16T23:40:23.736Z,97.90
2018-12-16T23:42:36.155Z,97.80
2018-12-16T23:44:48.462Z,97.70
2018-12-16T23:46:58.865Z,97.80
2018-12-16T23:49:09.452Z,97.90
2018-12-16T23:51:21.782Z,97.80
2018-12-16T23:53:33.914Z,97.70
2018-12-16T23:55:44.810Z,97.70
2018-12-16T23:58:01.028Z,97.80
